Time;durP1;ratioP1;P1;durP2;ratioP2;P2;SDS_P1;SDS_P2;PMS_P1;PMS_P2;Temp;Humidity;BMP_temperature;BMP_pressure;BME280_temperature;BME280_humidity;BME280_pressure;Samples;Min_cycle;Max_cycle;Signal;HPM_P1;HPM_P2
2021/08/09 00:02:25;;;;;;;0.90;0.90;;;;;;;22.47;100.00;97757.56;5037771;28;20313;-68
2021/08/09 00:04:52;;;;;;;0.93;0.93;;;;;;;22.50;100.00;97756.78;5017617;28;20198;-67
2021/08/09 00:07:18;;;;;;;0.80;0.80;;;;;;;22.50;100.00;97750.00;5023485;28;20665;-64
2021/08/09 00:09:45;;;;;;;0.90;0.90;;;;;;;22.51;100.00;97750.88;5019368;28;20236;-67
2021/08/09 00:12:12;;;;;;;1.00;1.00;;;;;;;22.51;100.00;97746.63;5023270;28;20245;-64
2021/08/09 00:14:38;;;;;;;1.07;1.07;;;;;;;22.50;100.00;97747.44;5022482;28;20229;-67
2021/08/09 00:17:06;;;;;;;1.00;1.00;;;;;;;22.43;100.00;97731.81;5017282;28;20206;-67
2021/08/09 00:19:33;;;;;;;0.90;0.90;;;;;;;22.52;100.00;97747.47;5022317;28;20229;-67
2021/08/09 00:22:00;;;;;;;0.97;0.97;;;;;;;22.43;100.00;97727.56;5012497;28;20711;-68
2021/08/09 00:24:28;;;;;;;2.00;1.10;;;;;;;22.43;100.00;97727.56;5021937;28;20695;-67
2021/08/09 00:26:55;;;;;;;1.83;0.90;;;;;;;22.21;100.00;97702.16;5016990;28;20647;-67
2021/08/09 00:29:21;;;;;;;0.90;0.90;;;;;;;22.49;100.00;97740.53;5038689;28;20198;-67
2021/08/09 00:31:48;;;;;;;0.90;0.90;;;;;;;22.45;100.00;97738.72;5021010;28;20691;-67
2021/08/09 00:34:14;;;;;;;0.80;0.80;;;;;;;22.41;100.00;97736.88;5017374;28;20225;-68
2021/08/09 00:36:41;;;;;;;0.80;0.80;;;;;;;22.53;100.00;97759.47;5021334;28;20241;-63
2021/08/09 00:39:07;;;;;;;1.07;0.90;;;;;;;22.53;100.00;97759.47;5016934;28;20237;-67
2021/08/09 00:41:34;;;;;;;0.80;0.80;;;;;;;22.25;100.00;97715.91;5023536;28;20240;-67
2021/08/09 00:44:01;;;;;;;0.90;0.90;;;;;;;22.52;100.00;97755.16;5015724;28;20253;-67
2021/08/09 00:46:29;;;;;;;0.90;0.90;;;;;;;22.53;100.00;97755.19;5006313;28;20284;-67
2021/08/09 00:48:56;;;;;;;1.00;0.87;;;;;;;22.46;100.00;97744.69;5022858;28;20292;-68
2021/08/09 00:51:22;;;;;;;1.00;1.00;;;;;;;22.54;100.00;97758.66;5020212;28;20264;-67
2021/08/09 00:53:49;;;;;;;0.90;0.90;;;;;;;22.54;100.00;97761.19;5018395;28;20237;-66
2021/08/09 00:56:16;;;;;;;2.00;0.97;;;;;;;22.53;100.00;97762.88;5022675;28;20667;-67
2021/08/09 00:58:43;;;;;;;0.80;0.80;;;;;;;22.53;100.00;97760.31;5017754;28;20236;-67
2021/08/09 01:01:09;;;;;;;1.17;0.90;;;;;;;22.54;100.00;97766.31;4993404;28;20293;-67
2021/08/09 01:03:36;;;;;;;0.83;0.83;;;;;;;22.53;100.00;97762.88;5007995;28;20222;-68
2021/08/09 01:06:03;;;;;;;0.90;0.90;;;;;;;22.43;100.00;97736.94;5014599;28;20252;-67
2021/08/09 01:08:42;;;;;;;2.27;0.90;;;;;;;22.53;100.00;97755.19;5023670;28;20280;-65
2021/08/09 01:11:11;;;;;;;0.90;0.90;;;;;;;22.52;100.00;97750.03;5011856;28;20194;-67
2021/08/09 01:13:57;;;;;;;0.90;0.90;;;;;;;22.50;100.00;97747.44;5011465;28;20241;-67
2021/08/09 01:16:29;;;;;;;1.03;1.03;;;;;;;22.43;100.00;97742.94;5018706;28;20249;-67
2021/08/09 01:19:11;;;;;;;0.80;0.80;;;;;;;22.47;100.00;97757.56;5016837;28;20293;-67
2021/08/09 01:21:38;;;;;;;0.83;0.83;;;;;;;22.25;100.00;97718.47;5016561;28;20286;-68
2021/08/09 01:24:36;;;;;;;0.93;0.93;;;;;;;22.43;100.00;97748.06;5035246;28;20229;-67
2021/08/09 01:27:31;;;;;;;0.90;0.90;;;;;;;22.44;100.00;97749.78;5018244;28;20233;-67
2021/08/09 01:30:00;;;;;;;0.90;0.90;;;;;;;22.41;100.00;97746.28;5033663;28;20238;-67
2021/08/09 01:32:27;;;;;;;1.47;1.00;;;;;;;22.45;100.00;97748.09;5020110;28;20249;-67
2021/08/09 01:34:53;;;;;;;0.77;0.77;;;;;;;22.46;100.00;97749.81;4989358;28;20241;-67
2021/08/09 01:37:20;;;;;;;0.90;0.90;;;;;;;22.45;100.00;97737.84;5020400;28;20229;-63
2021/08/09 01:39:47;;;;;;;1.00;1.00;;;;;;;22.47;100.00;97741.34;5005729;28;20289;-67
2021/08/09 01:42:15;;;;;;;1.00;1.00;;;;;;;22.18;100.00;97691.84;5020993;28;20798;-67
2021/08/09 01:44:41;;;;;;;1.03;1.03;;;;;;;22.23;100.00;97692.81;5001439;28;20232;-67
2021/08/09 01:47:08;;;;;;;0.90;0.90;;;;;;;22.41;100.00;97721.53;5016406;28;20236;-67
2021/08/09 01:49:35;;;;;;;0.90;0.90;;;;;;;22.41;100.00;97718.97;5002085;28;20224;-67
2021/08/09 01:52:02;;;;;;;1.00;1.00;;;;;;;22.49;100.00;97740.53;5035016;28;20681;-67
2021/08/09 01:54:28;;;;;;;0.90;0.90;;;;;;;22.50;100.00;97737.19;5023107;28;20234;-67
2021/08/09 01:56:55;;;;;;;0.90;0.90;;;;;;;22.51;100.00;97738.06;5013630;28;20253;-67
2021/08/09 01:59:21;;;;;;;0.90;0.90;;;;;;;22.43;100.00;97724.13;5004377;28;20198;-66
2021/08/09 02:01:48;;;;;;;1.23;1.13;;;;;;;22.48;100.00;97735.38;5020055;28;20309;-66
2021/08/09 02:04:15;;;;;;;0.90;0.90;;;;;;;22.51;100.00;97743.19;5020139;28;20225;-66
2021/08/09 02:06:43;;;;;;;0.90;0.90;;;;;;;22.51;100.00;97744.06;5027227;28;20241;-62
2021/08/09 02:09:09;;;;;;;1.00;1.00;;;;;;;22.44;100.00;97731.84;5020327;28;20655;-66
2021/08/09 02:12:08;;;;;;;1.00;1.00;;;;;;;22.51;100.00;97741.50;4986598;28;20290;-67
2021/08/09 02:14:40;;;;;;;0.90;0.90;;;;;;;22.44;100.00;97723.31;5008159;28;20668;-68
2021/08/09 02:17:14;;;;;;;0.90;0.90;;;;;;;22.52;100.00;97734.66;5022913;28;20218;-67
2021/08/09 02:19:45;;;;;;;0.83;0.83;;;;;;;22.35;100.00;97712.81;5018727;28;20252;-67
2021/08/09 02:22:16;;;;;;;0.90;0.90;;;;;;;22.44;100.00;97729.28;5009004;28;20215;-66
2021/08/09 02:24:54;;;;;;;2.07;0.90;;;;;;;22.52;100.00;97744.91;5020518;28;20236;-63
2021/08/09 02:27:20;;;;;;;0.90;0.90;;;;;;;22.48;100.00;97743.06;5023900;28;20198;-67
2021/08/09 02:29:49;;;;;;;1.13;1.13;;;;;;;22.24;100.00;97698.81;5008802;28;20289;-67
2021/08/09 02:32:16;;;;;;;0.90;0.90;;;;;;;22.49;100.00;97740.53;5009737;28;20316;-67
2021/08/09 02:34:43;;;;;;;0.80;0.80;;;;;;;22.52;100.00;97740.66;5021521;28;20252;-65
2021/08/09 02:37:09;;;;;;;0.90;0.90;;;;;;;22.52;100.00;97748.34;5026374;28;20252;-67
2021/08/09 02:39:37;;;;;;;0.93;0.93;;;;;;;22.53;100.00;97741.56;5022605;28;20233;-67
2021/08/09 02:44:32;;;;;;;0.90;0.90;;;;;;;22.53;100.00;97744.97;5010397;28;20277;-59
2021/08/09 02:46:59;;;;;;;0.90;0.90;;;;;;;22.53;100.00;97736.44;4985412;28;20722;-59
2021/08/09 02:49:25;;;;;;;0.83;0.83;;;;;;;22.52;100.00;97737.22;5026498;28;20201;-60
2021/08/09 02:51:52;;;;;;;0.90;0.90;;;;;;;22.44;100.00;97721.59;5024413;28;20236;-60
2021/08/09 02:54:18;;;;;;;0.90;0.90;;;;;;;22.53;100.00;97744.09;4991953;28;20312;-60
2021/08/09 02:56:45;;;;;;;1.00;1.00;;;;;;;22.51;100.00;97741.50;5024525;28;20458;-59
2021/08/09 02:59:12;;;;;;;0.90;0.90;;;;;;;22.46;100.00;97739.56;5018982;28;20288;-60
2021/08/09 03:01:39;;;;;;;2.30;0.90;;;;;;;22.49;100.00;97750.78;5028196;28;20690;-59
2021/08/09 03:04:06;;;;;;;1.03;1.00;;;;;;;22.38;100.00;97731.66;5008911;28;20217;-61
2021/08/09 03:06:32;;;;;;;0.80;0.80;;;;;;;22.47;100.00;97749.03;4996823;28;21009;-59
2021/08/09 03:08:59;;;;;;;0.97;0.97;;;;;;;22.45;100.00;97755.78;5003999;28;20236;-59
2021/08/09 03:11:26;;;;;;;1.00;1.00;;;;;;;22.37;100.00;97757.25;5009079;28;20233;-59
2021/08/09 03:13:52;;;;;;;1.20;1.10;;;;;;;22.43;100.00;97765.09;5025439;28;20737;-60
2021/08/09 03:16:19;;;;;;;1.87;0.90;;;;;;;22.44;100.00;97764.31;5021187;28;20303;-59
2021/08/09 03:18:46;;;;;;;1.80;1.00;;;;;;;22.44;100.00;97762.59;5024683;28;20214;-59
2021/08/09 03:21:13;;;;;;;0.90;0.90;;;;;;;22.45;100.00;97761.78;5023119;28;20285;-59
2021/08/09 03:23:39;;;;;;;0.90;0.90;;;;;;;22.46;100.00;97775.44;5021243;28;20256;-60
2021/08/09 03:26:06;;;;;;;0.90;0.90;;;;;;;22.46;100.00;97767.75;5024836;28;20233;-59
2021/08/09 03:28:34;;;;;;;1.53;1.03;;;;;;;22.47;100.00;97767.78;5021862;28;20204;-60
2021/08/09 03:31:03;;;;;;;1.40;1.00;;;;;;;22.48;100.00;97771.25;5025893;28;20198;-59
2021/08/09 03:33:30;;;;;;;2.53;1.00;;;;;;;22.48;100.00;97772.13;5019414;28;20249;-60
2021/08/09 03:35:57;;;;;;;1.03;0.90;;;;;;;22.48;100.00;97769.56;5026906;28;20245;-59
2021/08/09 03:38:23;;;;;;;0.93;0.93;;;;;;;22.43;100.00;97758.28;5023095;28;20233;-60
2021/08/09 03:40:50;;;;;;;2.00;0.90;;;;;;;22.49;100.00;97763.59;5021114;28;20287;-61
2021/08/09 03:43:16;;;;;;;0.90;0.90;;;;;;;22.49;100.00;97761.03;5023084;28;20265;-59
2021/08/09 03:45:43;;;;;;;0.90;0.90;;;;;;;22.49;100.00;97761.03;5022019;28;20233;-59
2021/08/09 03:48:11;;;;;;;0.90;0.90;;;;;;;22.50;100.00;97769.59;5024580;28;20261;-59
2021/08/09 03:50:38;;;;;;;0.90;0.90;;;;;;;22.50;100.00;97774.72;5019577;28;20589;-59
2021/08/09 03:53:04;;;;;;;0.73;0.73;;;;;;;22.51;100.00;97784.16;5026449;28;20249;-61
2021/08/09 03:55:31;;;;;;;0.90;0.90;;;;;;;22.50;100.00;97782.41;5022379;28;20244;-60
2021/08/09 03:57:58;;;;;;;1.00;1.00;;;;;;;22.50;100.00;97783.28;5019577;28;20701;-60
2021/08/09 04:00:24;;;;;;;0.90;0.90;;;;;;;22.52;100.00;97791.91;5023240;28;20225;-60
2021/08/09 04:02:51;;;;;;;0.90;0.90;;;;;;;22.51;100.00;97791.84;5021603;28;20840;-60
2021/08/09 04:05:18;;;;;;;0.90;0.90;;;;;;;22.48;100.00;97784.03;5024663;28;20655;-60
2021/08/09 04:07:45;;;;;;;1.00;1.00;;;;;;;22.52;100.00;97785.91;5022492;28;20648;-59
2021/08/09 04:10:11;;;;;;;0.80;0.80;;;;;;;22.52;100.00;97791.00;5026322;28;20233;-60
2021/08/09 04:12:38;;;;;;;1.00;1.00;;;;;;;22.52;100.00;97788.47;5021767;28;20255;-60
2021/08/09 04:15:06;;;;;;;0.80;0.80;;;;;;;22.52;100.00;97791.00;5016194;28;20201;-59
2021/08/09 04:17:34;;;;;;;1.10;1.10;;;;;;;22.50;100.00;97788.41;5025162;28;20273;-59
2021/08/09 04:20:01;;;;;;;0.97;0.80;;;;;;;22.52;100.00;97791.91;5014837;28;20645;-60
2021/08/09 04:22:27;;;;;;;0.90;0.90;;;;;;;22.51;100.00;97791.84;5021102;28;20309;-60
2021/08/09 04:24:54;;;;;;;0.90;0.90;;;;;;;22.50;100.00;97783.28;5022260;28;20229;-60
2021/08/09 04:27:20;;;;;;;0.90;0.90;;;;;;;22.52;100.00;97783.34;5021146;28;20226;-59
2021/08/09 04:29:47;;;;;;;0.80;0.80;;;;;;;22.53;100.00;97782.53;5022570;28;20285;-59
2021/08/09 04:32:14;;;;;;;0.70;0.70;;;;;;;22.53;100.00;97791.06;5020379;28;20293;-61
2021/08/09 04:34:42;;;;;;;0.90;0.90;;;;;;;22.53;100.00;97785.09;5020421;28;20699;-60
2021/08/09 04:37:08;;;;;;;0.90;0.90;;;;;;;22.52;100.00;97788.47;5023953;28;20248;-60
2021/08/09 04:39:35;;;;;;;0.90;0.90;;;;;;;22.50;100.00;97778.16;5021136;28;20205;-59
2021/08/09 04:42:04;;;;;;;2.27;0.90;;;;;;;22.49;100.00;97780.66;5022610;28;20635;-61
2021/08/09 04:44:39;;;;;;;1.00;1.00;;;;;;;22.48;100.00;97771.25;5019652;28;20659;-60
2021/08/09 04:47:06;;;;;;;0.87;0.87;;;;;;;22.44;100.00;97761.75;5023807;28;20228;-59
2021/08/09 04:49:33;;;;;;;0.93;0.93;;;;;;;22.39;100.00;97761.59;5021167;28;20202;-60
2021/08/09 04:51:59;;;;;;;0.90;0.90;;;;;;;22.44;100.00;97774.53;5018772;28;20288;-60
2021/08/09 04:54:26;;;;;;;0.90;0.90;;;;;;;22.43;100.00;97773.66;5023565;28;20229;-60
2021/08/09 04:56:52;;;;;;;0.93;0.93;;;;;;;22.44;100.00;97785.63;5018625;28;20221;-60
2021/08/09 04:59:19;;;;;;;0.90;0.90;;;;;;;22.45;100.00;97784.84;5023708;28;20229;-61
2021/08/09 05:01:45;;;;;;;0.87;0.87;;;;;;;22.45;100.00;97786.50;5019859;28;20201;-59
2021/08/09 05:04:12;;;;;;;0.90;0.90;;;;;;;22.47;100.00;97784.88;5024323;28;20305;-60
2021/08/09 05:06:39;;;;;;;0.90;0.90;;;;;;;22.41;100.00;97772.75;5020790;28;20232;-59
2021/08/09 05:09:05;;;;;;;1.00;1.00;;;;;;;22.47;100.00;97784.88;5024287;28;20820;-60
2021/08/09 05:11:33;;;;;;;0.90;0.90;;;;;;;22.48;100.00;97792.59;5022874;28;20197;-60
2021/08/09 05:13:59;;;;;;;1.20;1.17;;;;;;;22.49;100.00;97794.34;5012482;28;20252;-60
2021/08/09 05:16:28;;;;;;;0.90;0.90;;;;;;;22.50;100.00;97796.09;5024143;28;20221;-59
2021/08/09 05:19:01;;;;;;;0.90;0.90;;;;;;;22.49;100.00;97796.00;5023975;28;20607;-59
2021/08/09 05:21:29;;;;;;;1.00;1.00;;;;;;;22.51;100.00;97807.22;5021556;28;20290;-60
2021/08/09 05:23:57;;;;;;;0.90;0.90;;;;;;;22.52;100.00;97807.25;5019364;28;20256;-59
2021/08/09 05:26:23;;;;;;;1.00;1.00;;;;;;;22.52;100.00;97814.94;5022418;28;20202;-60
2021/08/09 05:28:50;;;;;;;1.00;1.00;;;;;;;22.39;100.00;97791.44;5019534;28;20664;-59
2021/08/09 05:31:17;;;;;;;0.83;0.83;;;;;;;22.53;100.00;97808.16;5013007;28;20325;-61
2021/08/09 05:33:43;;;;;;;0.80;0.80;;;;;;;22.53;100.00;97797.91;5018017;28;20214;-60
2021/08/09 05:36:10;;;;;;;0.93;0.93;;;;;;;22.54;100.00;97804.75;5025547;28;20204;-59
2021/08/09 05:38:37;;;;;;;0.90;0.90;;;;;;;22.54;100.00;97804.75;5017337;28;20662;-59
2021/08/09 05:41:03;;;;;;;1.00;1.00;;;;;;;22.53;100.00;97809.00;5018311;28;20296;-60
2021/08/09 05:43:30;;;;;;;0.90;0.90;;;;;;;22.52;100.00;97801.25;5010744;28;20321;-59
2021/08/09 05:45:57;;;;;;;0.80;0.80;;;;;;;22.53;100.00;97809.00;5018986;28;20222;-59
2021/08/09 05:48:24;;;;;;;0.90;0.90;;;;;;;22.54;100.00;97800.50;5022759;28;20274;-60
2021/08/09 05:50:50;;;;;;;1.00;1.00;;;;;;;22.55;100.00;97797.13;5020106;28;20240;-60
2021/08/09 05:53:17;;;;;;;1.23;0.90;;;;;;;22.55;100.00;97806.47;5022672;28;20260;-60
2021/08/09 05:55:44;;;;;;;0.97;0.97;;;;;;;22.55;100.00;97809.91;5021059;28;20667;-60
2021/08/09 05:58:10;;;;;;;1.00;1.00;;;;;;;22.56;100.00;97809.09;5020643;28;20312;-59
2021/08/09 06:00:37;;;;;;;1.00;1.00;;;;;;;22.55;100.00;97811.59;5018187;28;20197;-59
2021/08/09 06:03:04;;;;;;;1.53;0.90;;;;;;;22.55;100.00;97801.34;5021009;28;20213;-59
2021/08/09 06:05:30;;;;;;;0.90;0.90;;;;;;;22.52;100.00;97803.81;5021389;28;20253;-60
2021/08/09 06:07:57;;;;;;;1.10;1.10;;;;;;;22.56;100.00;97819.34;5020626;28;20222;-60
2021/08/09 06:10:23;;;;;;;0.90;0.90;;;;;;;22.56;100.00;97815.94;5022895;28;20267;-60
2021/08/09 06:12:50;;;;;;;1.27;1.17;;;;;;;22.56;100.00;97811.66;5020037;28;20224;-59
2021/08/09 06:15:16;;;;;;;1.00;1.00;;;;;;;22.56;100.00;97809.09;5020827;28;20229;-60
2021/08/09 06:17:43;;;;;;;1.00;1.00;;;;;;;22.56;100.00;97816.78;5024372;28;20296;-59
2021/08/09 06:20:10;;;;;;;1.03;1.03;;;;;;;22.08;100.00;97743.56;5022789;28;20365;-60
2021/08/09 06:22:37;;;;;;;1.77;1.00;;;;;;;22.55;100.00;97816.72;5016753;28;20257;-60
2021/08/09 06:25:04;;;;;;;1.07;1.07;;;;;;;22.53;100.00;97828.63;5021706;28;20233;-59
2021/08/09 06:27:30;;;;;;;1.20;1.10;;;;;;;22.48;100.00;97825.03;5019947;28;20199;-60
2021/08/09 06:29:57;;;;;;;1.10;1.00;;;;;;;22.51;100.00;97825.16;5020612;28;20263;-60
2021/08/09 06:32:24;;;;;;;1.27;1.20;;;;;;;22.50;100.00;97826.84;5019943;28;20305;-59
2021/08/09 06:34:51;;;;;;;1.00;1.00;;;;;;;22.48;100.00;97822.47;5019574;28;20207;-60
2021/08/09 06:37:17;;;;;;;1.03;1.00;;;;;;;22.48;100.00;97820.78;5021921;28;20321;-59
2021/08/09 06:39:44;;;;;;;1.00;1.00;;;;;;;22.48;100.00;97823.34;5022284;28;20285;-59
2021/08/09 06:42:11;;;;;;;1.40;1.20;;;;;;;22.48;100.00;97828.47;5024660;28;20202;-59
2021/08/09 06:44:37;;;;;;;1.53;1.10;;;;;;;22.49;100.00;97821.63;5021296;28;20644;-59
2021/08/09 06:47:04;;;;;;;1.30;1.20;;;;;;;22.50;100.00;97816.59;5025556;28;20235;-60
2021/08/09 06:49:30;;;;;;;1.30;1.20;;;;;;;22.46;100.00;97803.59;5023366;28;20584;-60
2021/08/09 06:51:57;;;;;;;1.07;0.97;;;;;;;22.52;100.00;97826.88;5024252;28;20284;-59
2021/08/09 06:54:25;;;;;;;1.27;1.20;;;;;;;22.53;100.00;97831.19;5025800;28;20276;-60
2021/08/09 06:56:52;;;;;;;1.00;1.00;;;;;;;22.53;100.00;97823.50;5019787;28;20301;-60
2021/08/09 06:59:19;;;;;;;1.10;1.10;;;;;;;22.53;100.00;97828.63;5024229;28;20198;-59
2021/08/09 07:01:45;;;;;;;1.17;1.10;;;;;;;22.49;100.00;97819.06;5022046;28;20241;-60
2021/08/09 07:04:12;;;;;;;2.07;1.33;;;;;;;22.54;100.00;97821.00;5012383;28;20645;-59
2021/08/09 07:06:39;;;;;;;1.30;1.20;;;;;;;22.55;100.00;97819.28;5023166;28;20243;-60
2021/08/09 07:09:05;;;;;;;1.10;1.10;;;;;;;22.55;100.00;97819.28;5019657;28;20290;-59
2021/08/09 07:11:32;;;;;;;1.30;1.20;;;;;;;22.52;100.00;97816.63;5026401;28;20281;-59
2021/08/09 07:13:59;;;;;;;1.23;1.13;;;;;;;22.52;100.00;97825.19;5022475;28;20661;-60
2021/08/09 07:16:26;;;;;;;1.40;1.30;;;;;;;22.55;100.00;97829.53;5025320;28;20281;-59
2021/08/09 07:18:53;;;;;;;1.10;1.10;;;;;;;22.51;100.00;97815.78;5027044;28;20226;-59
2021/08/09 07:21:20;;;;;;;1.87;1.20;;;;;;;22.56;100.00;97815.94;5022591;28;20234;-59
2021/08/09 07:23:46;;;;;;;1.37;1.13;;;;;;;22.56;100.00;97814.22;5020734;28;20316;-61
2021/08/09 07:26:13;;;;;;;1.37;1.27;;;;;;;22.56;100.00;97823.59;5024411;28;20237;-59
2021/08/09 07:28:40;;;;;;;1.10;1.10;;;;;;;22.53;100.00;97814.13;5020625;28;20194;-60
2021/08/09 07:31:06;;;;;;;2.33;1.00;;;;;;;22.57;100.00;97823.66;5025460;28;20237;-60
2021/08/09 07:33:33;;;;;;;1.33;1.20;;;;;;;22.57;100.00;97822.78;5017989;28;20249;-60
2021/08/09 07:36:01;;;;;;;1.30;1.20;;;;;;;22.52;100.00;97809.81;5016516;28;20200;-59
2021/08/09 07:38:27;;;;;;;1.13;1.13;;;;;;;22.55;100.00;97821.84;5020803;28;20214;-59
2021/08/09 07:40:54;;;;;;;1.40;1.30;;;;;;;22.52;100.00;97817.50;5020883;28;20241;-60
2021/08/09 07:43:20;;;;;;;1.10;1.10;;;;;;;22.57;100.00;97813.41;5023758;28;20253;-61
2021/08/09 07:45:47;;;;;;;1.40;1.30;;;;;;;22.58;100.00;97824.50;5021863;28;20658;-59
2021/08/09 07:48:14;;;;;;;1.00;1.00;;;;;;;22.57;100.00;97818.53;5023594;28;20195;-60
2021/08/09 07:50:42;;;;;;;1.40;1.30;;;;;;;22.52;100.00;97812.38;5021346;28;20229;-60
2021/08/09 07:53:08;;;;;;;3.23;1.10;;;;;;;22.57;100.00;97823.66;5024746;28;20253;-61
2021/08/09 07:55:35;;;;;;;1.40;1.30;;;;;;;22.53;100.00;97823.50;5018371;28;20283;-59
2021/08/09 07:58:02;;;;;;;1.40;1.30;;;;;;;22.56;100.00;97824.44;5016901;28;20782;-60
2021/08/09 08:00:28;;;;;;;2.07;1.37;;;;;;;22.55;100.00;97825.28;5018864;28;20241;-59
2021/08/09 08:02:55;;;;;;;1.40;1.30;;;;;;;22.56;100.00;97834.69;5018508;28;20225;-59
2021/08/09 08:05:22;;;;;;;1.30;1.20;;;;;;;22.57;100.00;97839.03;5021242;28;20238;-60
2021/08/09 08:07:48;;;;;;;1.10;1.10;;;;;;;22.53;100.00;97828.63;5015688;28;20335;-60
2021/08/09 08:10:16;;;;;;;1.40;1.30;;;;;;;22.57;100.00;97835.59;5016956;28;20197;-59
2021/08/09 08:12:42;;;;;;;1.30;1.20;;;;;;;22.55;100.00;97838.09;5014679;28;20400;-59
2021/08/09 08:15:09;;;;;;;1.13;1.13;;;;;;;22.52;100.00;97832.00;5016065;28;20285;-59
2021/08/09 08:17:36;;;;;;;1.40;1.30;;;;;;;22.52;100.00;97838.00;5015707;28;20477;-59
2021/08/09 08:20:04;;;;;;;1.10;1.10;;;;;;;22.51;100.00;97831.16;5018916;28;20690;-60
2021/08/09 08:22:31;;;;;;;1.60;1.40;;;;;;;22.50;100.00;97837.06;5015540;28;20245;-61
2021/08/09 08:24:57;;;;;;;1.37;1.27;;;;;;;22.49;100.00;97834.44;5021215;28;20241;-59
2021/08/09 08:27:24;;;;;;;2.33;1.30;;;;;;;22.47;100.00;97830.97;5020451;28;20202;-59
2021/08/09 08:29:50;;;;;;;1.20;1.10;;;;;;;22.49;100.00;97839.56;5022104;28;20245;-59
2021/08/09 08:32:17;;;;;;;1.30;1.20;;;;;;;22.50;100.00;97844.75;5016325;28;20210;-59
2021/08/09 08:34:44;;;;;;;1.10;1.10;;;;;;;22.51;100.00;97837.97;5018366;28;20249;-60
2021/08/09 08:37:10;;;;;;;1.17;1.07;;;;;;;22.50;100.00;97831.94;5016775;28;20238;-60
2021/08/09 08:39:37;;;;;;;1.30;1.20;;;;;;;22.42;100.00;97818.03;5017253;28;20242;-59
2021/08/09 08:42:03;;;;;;;1.10;1.10;;;;;;;22.53;100.00;97828.63;5018076;28;20238;-60
2021/08/09 08:44:30;;;;;;;1.30;1.20;;;;;;;22.50;100.00;97823.38;5022184;28;20569;-60
2021/08/09 08:46:57;;;;;;;1.10;1.10;;;;;;;22.48;100.00;97823.34;5021141;28;20209;-59
2021/08/09 08:49:24;;;;;;;1.20;1.10;;;;;;;22.54;100.00;97827.81;4999008;28;20234;-61
2021/08/09 08:51:50;;;;;;;1.40;1.30;;;;;;;22.53;100.00;97826.91;5017666;28;20241;-59
2021/08/09 08:54:17;;;;;;;2.40;1.20;;;;;;;22.53;100.00;97828.63;5017060;28;20258;-61
2021/08/09 08:56:44;;;;;;;1.30;1.20;;;;;;;22.54;100.00;97823.56;5019477;28;20206;-59
2021/08/09 08:59:18;;;;;;;1.13;1.10;;;;;;;22.56;100.00;97831.28;5018383;28;20230;-59
2021/08/09 09:01:46;;;;;;;1.10;1.10;;;;;;;22.54;100.00;97820.13;5015540;28;20240;-60
2021/08/09 09:04:31;;;;;;;1.20;1.10;;;;;;;22.56;100.00;97824.44;5001357;28;20644;-59
2021/08/09 09:07:00;;;;;;;1.10;1.10;;;;;;;22.55;100.00;97824.41;5015282;28;20248;-60
2021/08/09 09:09:27;;;;;;;1.20;1.10;;;;;;;22.56;100.00;97824.44;5021749;28;20241;-60
2021/08/09 09:11:54;;;;;;;1.00;1.00;;;;;;;22.56;100.00;97821.88;5014765;28;20296;-59
2021/08/09 09:14:28;;;;;;;1.50;1.40;;;;;;;22.56;100.00;97824.44;5019334;28;20257;-60
2021/08/09 09:16:55;;;;;;;1.10;1.10;;;;;;;22.54;100.00;97828.69;5019956;28;20196;-58
2021/08/09 09:19:27;;;;;;;1.27;1.17;;;;;;;22.56;100.00;97821.88;5013770;28;20268;-59
2021/08/09 09:21:54;;;;;;;1.27;1.17;;;;;;;22.56;100.00;97829.56;5020881;28;20490;-60
2021/08/09 09:24:21;;;;;;;1.10;1.10;;;;;;;22.55;100.00;97829.53;5014833;28;20767;-60
2021/08/09 09:26:57;;;;;;;1.20;1.10;;;;;;;22.57;100.00;97830.47;5021481;28;20260;-59
2021/08/09 09:29:25;;;;;;;1.30;1.20;;;;;;;22.53;100.00;97823.50;5016534;28;20226;-59
2021/08/09 09:31:52;;;;;;;1.10;1.10;;;;;;;22.57;100.00;97833.03;4998826;28;20652;-59
2021/08/09 09:34:20;;;;;;;1.60;1.20;;;;;;;22.52;100.00;97830.31;5015988;28;20256;-59
2021/08/09 09:36:55;;;;;;;1.10;1.10;;;;;;;22.57;100.00;97833.03;5015366;28;20323;-61
2021/08/09 09:39:28;;;;;;;1.13;1.10;;;;;;;22.58;100.00;97838.19;5018144;28;20256;-60
2021/08/09 09:41:56;;;;;;;1.10;1.10;;;;;;;22.58;100.00;97845.00;5017830;28;20233;-59
2021/08/09 09:44:23;;;;;;;1.30;1.20;;;;;;;22.53;100.00;97829.50;5019231;28;20312;-59
2021/08/09 09:46:50;;;;;;;1.23;1.10;;;;;;;22.55;100.00;97835.53;5000126;28;20216;-60
2021/08/09 09:49:33;;;;;;;1.07;1.07;;;;;;;22.58;100.00;97842.44;5017932;28;20229;-61
2021/08/09 09:52:00;;;;;;;1.20;1.10;;;;;;;22.54;100.00;97832.94;5009071;28;20212;-59
2021/08/09 09:54:27;;;;;;;1.27;1.17;;;;;;;22.56;100.00;97828.72;5017548;28;20368;-61
2021/08/09 09:56:54;;;;;;;1.40;1.30;;;;;;;22.55;100.00;97834.66;5019349;28;20639;-59
2021/08/09 09:59:22;;;;;;;1.27;1.17;;;;;;;22.53;100.00;97831.19;5019251;28;20308;-61
2021/08/09 10:01:50;;;;;;;1.10;1.10;;;;;;;22.51;100.00;97833.72;5020723;28;20565;-59
2021/08/09 10:04:16;;;;;;;1.10;1.10;;;;;;;22.47;100.00;97821.59;5015626;28;20222;-61
2021/08/09 10:06:43;;;;;;;1.13;0.93;;;;;;;22.41;100.00;97808.59;5018214;28;20233;-59
2021/08/09 10:09:10;;;;;;;1.03;1.00;;;;;;;22.40;100.00;97808.53;5005678;28;20240;-60
2021/08/09 10:11:38;;;;;;;1.37;1.07;;;;;;;22.50;100.00;97823.38;4998483;28;20589;-59
2021/08/09 10:14:05;;;;;;;1.70;1.13;;;;;;;22.50;100.00;97819.16;5002820;28;20264;-61
2021/08/09 10:16:33;;;;;;;1.00;1.00;;;;;;;22.51;100.00;97817.47;5023408;28;20396;-60
2021/08/09 10:19:00;;;;;;;1.30;1.20;;;;;;;22.51;100.00;97823.47;4998490;28;20225;-60
2021/08/09 10:21:30;;;;;;;1.10;1.10;;;;;;;22.49;100.00;97811.38;5019517;28;20294;-60
2021/08/09 10:23:57;;;;;;;1.03;1.03;;;;;;;22.52;100.00;97809.81;5020484;28;20738;-60
2021/08/09 10:26:27;;;;;;;0.90;0.90;;;;;;;22.52;100.00;97814.94;5001608;28;20637;-59
2021/08/09 10:28:54;;;;;;;0.93;0.93;;;;;;;22.53;100.00;97816.69;5021475;28;20245;-59
2021/08/09 10:31:31;;;;;;;1.00;1.00;;;;;;;22.53;100.00;97816.69;5019205;28;20206;-59
2021/08/09 10:33:59;;;;;;;1.20;1.10;;;;;;;22.54;100.00;97813.31;5023513;28;20225;-60
2021/08/09 10:36:25;;;;;;;1.20;1.10;;;;;;;22.51;100.00;97800.41;5016757;28;20289;-60
2021/08/09 10:38:53;;;;;;;1.20;1.20;;;;;;;22.55;100.00;97809.03;5021532;28;20247;-60
2021/08/09 10:41:33;;;;;;;0.90;0.90;;;;;;;22.55;100.00;97804.78;5018854;28;20238;-60
2021/08/09 10:44:06;;;;;;;1.20;1.20;;;;;;;22.55;100.00;97802.22;5023703;28;20714;-61
2021/08/09 10:46:54;;;;;;;1.10;1.10;;;;;;;22.56;100.00;97798.00;5021359;28;20775;-59
2021/08/09 10:49:39;;;;;;;1.10;1.00;;;;;;;22.56;100.00;97798.84;5017556;28;20261;-59
2021/08/09 10:52:06;;;;;;;1.30;1.20;;;;;;;22.56;100.00;97801.41;5015018;28;20647;-61
2021/08/09 10:54:35;;;;;;;0.90;0.90;;;;;;;22.56;100.00;97798.84;5020569;28;20289;-60
2021/08/09 10:57:03;;;;;;;1.00;1.00;;;;;;;22.49;100.00;97773.84;5013496;28;20238;-59
2021/08/09 10:59:48;;;;;;;1.07;1.07;;;;;;;22.56;100.00;97798.84;5020877;28;20300;-60
2021/08/09 11:02:21;;;;;;;1.20;1.10;;;;;;;22.58;100.00;97798.88;5016687;28;20339;-59
2021/08/09 11:05:13;;;;;;;1.20;1.20;;;;;;;22.57;100.00;97795.47;5018409;28;20198;-60
2021/08/09 11:07:49;;;;;;;1.13;1.10;;;;;;;22.57;100.00;97798.03;5023151;28;20201;-59
2021/08/09 11:10:27;;;;;;;1.53;1.17;;;;;;;22.57;100.00;97792.91;5017876;28;20235;-59
2021/08/09 11:13:00;;;;;;;1.10;1.10;;;;;;;22.57;100.00;97777.53;5007882;28;20257;-59
2021/08/09 11:15:27;;;;;;;1.10;1.10;;;;;;;22.52;100.00;97767.97;5019516;28;20390;-60
2021/08/09 11:17:58;;;;;;;1.27;1.17;;;;;;;22.57;100.00;97780.09;5023509;28;20320;-60
2021/08/09 11:20:32;;;;;;;1.00;1.00;;;;;;;22.57;100.00;97779.22;5020489;28;20234;-59
2021/08/09 11:22:58;;;;;;;1.00;1.00;;;;;;;22.57;100.00;97780.09;5018681;28;20302;-59
2021/08/09 11:25:36;;;;;;;1.10;1.10;;;;;;;22.57;100.00;97780.09;5021147;28;20675;-60
2021/08/09 11:28:09;;;;;;;1.40;1.30;;;;;;;22.58;100.00;97775.81;5018415;28;20197;-59
2021/08/09 11:30:47;;;;;;;1.20;1.20;;;;;;;22.58;100.00;97780.94;5016261;28;21000;-60
2021/08/09 11:33:29;;;;;;;0.97;0.97;;;;;;;22.57;100.00;97772.41;5019466;28;20304;-60